Terminal Aerodrome Forecast
Issued by NWS

Home | Current Version | Previous Version | Text Only | Print | Product List | Glossary On
Versions: 1 2 3 4 5 6 7 8 9 10 11 12 13 14 15 16 17
000
FTUS46 KPDT 301210 AAA
TAFDLS
TAF AMD
KDLS 301210Z 3012/0112 30007KT P6SM SKC
     FM301500 32012KT P6SM SKC
     FM301800 33017G24KT P6SM SKC
     FM010500 31012KT P6SM SKC
     FM010800 32008KT P6SM SKC=

USA.gov is the U.S. government's official web portal to all federal, state and local government web resources and services.